Thursday, March 22, 2018, 10:01 AM EDT
Back to Local

KBTP, Butler, Butler County Airport/k W Scholter Field

Location: Renfrew, PA, United States Lat: 40.783
Local Time: 10:01 AM EDT (14:01 GMT) Lon: -79.95
Time Zone: US/Eastern Elev: 1246 ft

Show me the last for .
Show Decoded

2018-03-22 08:56 METAR KBTP 221256Z AUTO VRB04KT 10SM CLR M04/M06 A3010 RMK AO2 SLP214 T10441056
                 FZRANO =
2018-03-22 07:56 METAR KBTP 221156Z AUTO 27003KT 10SM CLR M07/M08 A3008 RMK AO2 SLP210 7////
                 T10721083 11039 21072 53019 FZRANO =
2018-03-22 06:56 METAR KBTP 221056Z AUTO 28003KT 10SM CLR M07/M08 A3006 RMK AO2 SLP201 T10671078
                 FZRANO =
2018-03-22 05:56 METAR KBTP 220956Z AUTO 27003KT 10SM CLR M06/M07 A3004 RMK AO2 SLP196 T10611072
                 FZRANO TSNO =
2018-03-22 04:56 METAR KBTP 220856Z AUTO 28004KT 10SM CLR M07/M08 A3003 RMK AO2 SLP190 T10671078
                 51007 FZRANO =
2018-03-22 03:56 METAR KBTP 220756Z AUTO 27003KT 10SM CLR M07/M08 A3002 RMK AO2 SLP187 T10671078
                 FZRANO =
2018-03-22 02:56 METAR KBTP 220656Z AUTO 29004KT 10SM CLR M04/M07 A3001 RMK AO2 SLP185 T10441067
                 FZRANO =
2018-03-22 01:56 METAR KBTP 220556Z AUTO 29005KT 10SM CLR M04/M08 A3000 RMK AO2 SLP181 6////
                 T10391083 10000 21039 51015 FZRANO =
2018-03-22 00:56 METAR KBTP 220456Z AUTO 30004KT 10SM CLR M03/M09 A2999 RMK AO2 SLP177 T10331089
                 400171033 FZRANO =
2018-03-21 23:56 METAR KBTP 220356Z AUTO VRB03KT 10SM CLR M02/M08 A2998 RMK AO2 SLP171 T10221083
                 FZRANO =
2018-03-21 22:56 METAR KBTP 220256Z AUTO 33003KT 10SM CLR M02/M08 A2996 RMK AO2 SLP166 T10221078
                 51026 FZRANO =
2018-03-21 21:56 METAR KBTP 220156Z AUTO 32005KT 10SM CLR M02/M07 A2995 RMK AO2 SLP161 T10171067
                 FZRANO =
2018-03-21 20:56 METAR KBTP 220056Z AUTO 33006KT 10SM CLR M01/M06 A2992 RMK AO2 SLP151 T10111061
                 FZRANO =
2018-03-21 19:56 METAR KBTP 212356Z AUTO 31007KT 10SM BKN100 00/M06 A2988 RMK AO2 SLP137 60002
                 T00001056 10017 21006 51024 FZRANO =
2018-03-21 18:56 METAR KBTP 212256Z AUTO VRB06KT 10SM BKN070 00/M06 A2986 RMK AO2 SLP131
                 T00001056 FZRANO =
2018-03-21 17:56 METAR KBTP 212156Z AUTO 29005KT 10SM FEW049 01/M06 A2983 RMK AO2 RAB09E22 SLP121
                 P0000 T00061056 FZRANO =
2018-03-21 16:56 METAR KBTP 212056Z AUTO 31005KT 10SM OVC045 01/M06 A2981 RMK AO2 SLP111 60002
                 T00061056 53009 FZRANO =
2018-03-21 15:56 METAR KBTP 211956Z AUTO 32005KT 10SM BKN037 OVC045 M01/M04 A2979 RMK AO2
                 RAB39E43SNE39 SLP107 P0001 T10061044 FZRANO =
2018-03-21 15:43 METAR KBTP 211943Z AUTO 32003KT 10SM SCT025 SCT032 OVC042 01/M04 A2979 RMK AO2
                 RAB39E43SNE39 P0001 FZRANO =
2018-03-21 15:36 METAR KBTP 211936Z AUTO 00000KT 7SM -SN SCT023 BKN029 BKN038 01/M03 A2979 RMK
                 AO2 P0001 FZRANO =
2018-03-21 15:06 METAR KBTP 211906Z AUTO VRB04KT 2SM -SN SCT012 BKN020 OVC026 00/M03 A2978 RMK
                 AO2 VIS 1 1/4V4 P0000 FZRANO =
2018-03-21 14:56 METAR KBTP 211856Z AUTO VRB05KT 1 1/2SM -SN BKN012 OVC018 M01/M04 A2978 RMK AO2
                 SLP102 P0001 T10061039 FZRANO =
2018-03-21 14:53 METAR KBTP 211853Z AUTO 01008KT 330V030 1 1/2SM -SN FEW008 BKN012 OVC018 M01/M04
                 A2978 RMK AO2 P0001 FZRANO =
2018-03-21 14:35 METAR KBTP 211835Z AUTO 35007KT 1SM -SN OVC010 00/M03 A2977 RMK AO2 CIG 006V013
                 P0001 FZRANO TSNO RVRNO =
2018-03-21 14:27 METAR KBTP 211827Z AUTO VRB05KT 3/4SM -SN BKN010 OVC015 00/M03 A2977 RMK AO2 CIG
                 006V012 P0001 FZRANO RVRNO =
2018-03-21 14:02 METAR KBTP 211802Z AUTO 33007KT 3/4SM -SN OVC010 M01/M03 A2977 RMK AO2 CIG
                 007V015 P0001 FZRANO RVRNO =
2018-03-21 13:56 METAR KBTP 211756Z AUTO VRB05KT 1/2SM SN BKN008 OVC013 M01/M03 A2977 RMK AO2 CIG
                 006V011 SLP101 P0003 60020 T10061033 10000 21028 51015 FZRANO RVRNO =
2018-03-21 12:56 METAR KBTP 211656Z AUTO 01005KT 1/2SM SN BKN008 OVC012 M01/M03 A2976 RMK AO2 CIG
                 005V010 SLP097 P0002 T10061033 FZRANO RVRNO =
2018-03-21 12:45 METAR KBTP 211645Z AUTO VRB05KT 1/2SM SN FZFG BKN008 OVC012 M01/M03 A2976 RMK
                 AO2 CIG 005V010 P0002 FZRANO RVRNO =
2018-03-21 12:31 METAR KBTP 211631Z AUTO 02007KT 1/2SM SN FZFG OVC010 M01/M03 A2975 RMK AO2 CIG
                 006V014 P0001 FZRANO RVRNO =
2018-03-21 12:26 METAR KBTP 211626Z AUTO 03007KT 3/4SM -SN BKN008 OVC013 M01/M04 A2975 RMK AO2
                 CIG 006V012 P0001 FZRANO RVRNO =
2018-03-21 11:56 METAR KBTP 211556Z AUTO VRB04KT 1/2SM SN OVC008 00/M03 A2974 RMK AO2 CIG 006V010
                 SLP090 P0003 T00001028 FZRANO RVRNO =
2018-03-21 11:13 METAR KBTP 211513Z AUTO 01005KT 1/2SM SN FZFG BKN008 OVC015 M01/M03 A2973 RMK
                 AO2 P0001 FZRANO RVRNO =
2018-03-21 10:56 METAR KBTP 211456Z AUTO 01008KT 3/4SM -SN BR BKN008 OVC013 M01/M03 A2973 RMK AO2
                 CIG 006V010 SLP085 P0006 60012 T10111033 53009 FZRANO RVRNO =
2018-03-21 10:47 METAR KBTP 211447Z AUTO 02008KT 3/4SM -SN BR SCT008 OVC013 M01/M03 A2972 RMK AO2
                 P0006 FZRANO RVRNO =
2018-03-21 10:32 METAR KBTP 211432Z AUTO 02007KT 1/2SM SN FZFG SCT008 OVC013 M02/M03 A2972 RMK
                 AO2 P0005 FZRANO RVRNO =
2018-03-21 10:24 METAR KBTP 211424Z AUTO 04006KT 3/4SM -SN BR FEW007 OVC013 M02/M04 A2972 RMK AO2
                 P0004 FZRANO RVRNO =
2018-03-21 10:15 METAR KBTP 211415Z AUTO 04009KT 1SM -SN BR FEW007 OVC013 M02/M04 A2971 RMK AO2
                 P0003 FZRANO RVRNO =
2018-03-21 10:07 METAR KBTP 211407Z AUTO 05010KT 1SM -SN BR BKN007 OVC013 M02/M04 A2971 RMK AO2
                 CIG 006V010 P0003 FZRANO RVRNO =

Support USWX by starting your Amazon purchase here.